Česky Dansk Deutsch English Español Suomi Français Magyar Italiano Nederlands norsk Polski Português svenska Türkçe

 

Weather

Guetersloh (Germany)

12:50, 28 October 2013 (GMT)

NWNNE
WE
SWSSE
Home            
Guetersloh Paderborn / Lippstadt Muenster / Osnabrueck Dortmund / Wickede Bueckeburg Hopsten Diepholz Rheine-Bentlage Kassel / Calden Wunstorf Nordhorn Twenthe Essen Meppen-Mil Fritzlar Hannover Duesseldorf Bremen Hessen Lemwerder Celle Koeln / Bonn Kalkar

To put a weather button on your web site or blog, copy the code below and paste it into your page . The first box contains HTML code, the second UBB code.


Add to Google

Details

Wind speed:5 bf, 21 kn, 10.8 m/s, 24.2 miles/h, 38.9 km/h
Gusts up to:7 bf, 31 kn, 15.9 m/s, 35.7 miles/h, 57.4 km/h
Wind direction:SW, 220°
Visibility:Greater than 10000 m, 10 km, 32800 ft, 6.2 miles
Clouds:Broken clouds at 4000 ft, 1219 m
Broken clouds at 25000 ft, 7620 m
Temperature:16°C, 61°F
Dew-point:11°C, 52°F
Atmospheric pressure:995 hPa, 746.3 mmHg, 29.38 inHg, 0.982 atm
Relative humidity:72.2 %
METAR:ETUO 281250Z 22021G31KT 9999 BKN040 BKN250 16/11 Q0995 BLU

Shortcuts

An up-to-date overview of weather conditions all over the world. Add locations with the plus (+) sign. These shortcuts can be added to Google.

Lid van de Technetium groep

website free tracking
StatCounter NetStat W3C Validator

27-09-2022 11:46:46
astro.technetium.be money.technetium.be phote.technetium.be tafeltennistafel.technetium.be www.ligfiets.net